Log in Register

Login to your account

Username *
Password *
Remember Me

Create an account

Fields marked with an asterisk (*) are required.
Name *
Username *
Password *
Verify password *
Email *
Verify email *

METAR/TAF de Chambéry

[source: ADDS]
METAR
LFLB 041830Z AUTO 00000KT 9999 ///CB 16/13 Q1000 TEMPO VRB20G35KT 2000 TSRA =
TAF LFLB 041100Z 0412/0512 18005KT 9999 BKN040 TEMPO 0412/0424 4000 SHRA BKN040TCU PROB40 TEMPO 0416/0422 VRB20G35KT 2000 TSRA SCT015 BKN040CB BECMG 0503/0505 VRB03KT
TAF
TAF LFLB 041100Z 0412/0512 18005KT 9999 BKN040 TEMPO 0412/0424 4000 SHRA BKN040TCU PROB40 TEMPO 0416/0422 VRB20G35KT 2000 TSRA SCT015 BKN040CB BECMG 0503/0505 VRB03KT =
SR / SS: 03:48 / 19:21 UTC (Lever/Coucher du soleil le 2020-06-04)

 

Webcam de l'Aéroclub - Parking Lima et SW (réactualisation : 5min)

Cliquer ici pour une animation sur les 3 dernières heures / Cliquer sur l'image pour l'agrandir dans une nouvelle fenêtre

 

Webcam de l'Aéroclub - Manche à air et WA (réactualisation : 5min)

Cliquer ici pour une animation sur les 3 dernières heures / Cliquer sur l'image pour l'agrandir dans une nouvelle fenêtre

 

JSN Boot template designed by JoomlaShine.com